Time;durP1;ratioP1;P1;durP2;ratioP2;P2;SDS_P1;SDS_P2;PMS_P1;PMS_P2;Temp;Humidity;BMP_temperature;BMP_pressure;BME280_temperature;BME280_humidity;BME280_pressure;Samples;Min_cycle;Max_cycle;Signal;HPM_P1;HPM_P2
2022/06/22 00:02:34;;;;;;;7.33;5.33;;;12.50;99.90;;;;;;5056459;28;20393;-74
2022/06/22 00:05:06;;;;;;;7.13;4.73;;;12.50;99.90;;;;;;5057056;28;20421;-71
2022/06/22 00:07:38;;;;;;;5.97;5.10;;;12.40;99.90;;;;;;5056368;28;20368;-70
2022/06/22 00:10:28;;;;;;;8.30;5.77;;;12.40;99.90;;;;;;5056898;28;20936;-75
2022/06/22 00:12:56;;;;;;;5.40;4.90;;;12.40;99.90;;;;;;5057013;28;20408;-75
2022/06/22 00:15:38;;;;;;;6.10;5.60;;;12.30;99.90;;;;;;5057071;28;20372;-75
2022/06/22 00:18:46;;;;;;;6.83;6.23;;;12.30;99.90;;;;;;5038120;28;20506;-71
2022/06/22 00:21:36;;;;;;;9.67;5.73;;;12.30;99.90;;;;;;5056770;28;20755;-74
2022/06/22 00:24:24;;;;;;;6.40;5.73;;;12.30;99.90;;;;;;5057017;28;20386;-75
2022/06/22 00:27:07;;;;;;;9.23;5.80;;;12.30;99.90;;;;;;5055745;28;20383;-71
2022/06/22 00:29:36;;;;;;;6.47;4.90;;;12.20;99.90;;;;;;5056648;28;20396;-75
2022/06/22 00:32:13;;;;;;;4.73;4.33;;;12.00;99.90;;;;;;5056854;28;20398;-71
2022/06/22 00:34:39;;;;;;;6.17;5.20;;;12.00;99.90;;;;;;5056637;28;20609;-74
2022/06/22 00:37:19;;;;;;;6.60;5.30;;;11.90;99.90;;;;;;5055482;28;20462;-72
2022/06/22 00:39:48;;;;;;;5.60;4.60;;;11.90;99.90;;;;;;5038232;28;20682;-74
2022/06/22 00:42:33;;;;;;;4.30;3.90;;;11.90;99.90;;;;;;5056554;28;20416;-74
2022/06/22 00:45:07;;;;;;;5.57;5.10;;;11.90;99.90;;;;;;5056322;28;20735;-72
2022/06/22 00:47:46;;;;;;;6.40;5.90;;;11.90;99.90;;;;;;5055776;28;20373;-71
2022/06/22 00:50:16;;;;;;;5.53;5.03;;;11.90;99.90;;;;;;5054983;28;20391;-71
2022/06/22 00:52:47;;;;;;;5.43;4.93;;;11.80;99.90;;;;;;5054987;28;20447;-75
2022/06/22 00:55:32;;;;;;;6.60;5.60;;;11.80;99.90;;;;;;5054167;28;20401;-75
2022/06/22 00:58:04;;;;;;;5.33;4.83;;;11.80;99.90;;;;;;5054104;28;20784;-72
2022/06/22 01:00:33;;;;;;;4.90;4.50;;;11.80;99.90;;;;;;5054927;28;20433;-71
2022/06/22 01:03:12;;;;;;;5.93;5.43;;;11.80;99.90;;;;;;5054688;28;20402;-71
2022/06/22 01:06:15;;;;;;;5.93;5.40;;;11.70;99.90;;;;;;5054776;28;20368;-75
2022/06/22 01:08:47;;;;;;;7.10;5.00;;;11.70;99.90;;;;;;5053895;28;20411;-75
2022/06/22 01:14:18;;;;;;;6.00;5.53;;;11.70;99.90;;;;;;5054145;28;20758;-71
2022/06/22 01:16:49;;;;;;;8.37;5.93;;;11.70;99.90;;;;;;5054040;28;20405;-75
2022/06/22 01:19:20;;;;;;;8.47;6.57;;;11.70;99.90;;;;;;5036458;28;20453;-72
2022/06/22 01:21:54;;;;;;;12.00;7.47;;;11.70;99.90;;;;;;5054692;28;20463;-71
2022/06/22 01:24:43;;;;;;;9.97;7.07;;;11.80;99.90;;;;;;5054761;28;20376;-75
2022/06/22 01:27:23;;;;;;;10.13;6.53;;;11.80;99.90;;;;;;5053810;28;20422;-71
2022/06/22 01:29:54;;;;;;;12.73;6.10;;;11.90;99.90;;;;;;5036652;28;20415;-75
2022/06/22 01:32:26;;;;;;;9.60;7.10;;;11.90;99.90;;;;;;5054078;28;20380;-74
2022/06/22 01:34:57;;;;;;;8.33;6.60;;;11.90;99.90;;;;;;5054017;28;20409;-70
2022/06/22 01:37:29;;;;;;;8.83;6.23;;;11.90;99.90;;;;;;5053535;28;20403;-71
2022/06/22 01:40:13;;;;;;;7.00;6.37;;;11.80;99.90;;;;;;5054263;28;21001;-71
2022/06/22 01:42:45;;;;;;;6.20;5.70;;;11.70;99.90;;;;;;5054409;28;20385;-74
2022/06/22 01:45:37;;;;;;;6.03;5.43;;;11.70;99.90;;;;;;5054209;28;20412;-74
2022/06/22 01:48:29;;;;;;;6.87;6.17;;;11.60;99.90;;;;;;4996407;28;1128510;-75
2022/06/22 01:51:12;;;;;;;6.13;5.50;;;11.60;99.90;;;;;;5055172;28;20220;-75
2022/06/22 01:53:52;;;;;;;6.23;5.63;;;11.60;99.90;;;;;;5054277;28;20387;-70
2022/06/22 01:56:30;;;;;;;8.00;6.10;;;11.50;99.90;;;;;;5054958;28;20408;-71
2022/06/22 01:59:17;;;;;;;6.60;5.63;;;11.50;99.90;;;;;;5054904;28;20453;-73
2022/06/22 02:01:57;;;;;;;7.80;5.43;;;11.50;99.90;;;;;;5054823;28;20391;-75
2022/06/22 02:04:48;;;;;;;7.10;5.07;;;11.50;99.90;;;;;;5054847;28;20376;-74
2022/06/22 02:07:44;;;;;;;6.73;6.03;;;11.50;99.90;;;;;;5054121;28;20394;-75
2022/06/22 02:10:13;;;;;;;6.07;5.47;;;11.50;99.90;;;;;;5054237;28;20940;-75
2022/06/22 02:13:08;;;;;;;6.77;5.33;;;11.50;99.90;;;;;;5054779;28;20405;-75
2022/06/22 02:15:44;;;;;;;6.17;5.70;;;11.50;99.90;;;;;;5053941;28;20449;-74
2022/06/22 02:18:49;;;;;;;6.40;5.83;;;11.60;99.90;;;;;;5053371;28;20427;-75
2022/06/22 02:21:18;;;;;;;7.47;6.10;;;11.60;99.90;;;;;;5031379;28;20434;-71
2022/06/22 02:23:47;;;;;;;8.07;5.47;;;11.60;99.90;;;;;;5054481;28;20420;-72
2022/06/22 02:26:22;;;;;;;7.40;6.60;;;11.70;99.90;;;;;;5054473;28;20406;-76
2022/06/22 02:28:49;;;;;;;8.70;7.90;;;11.80;99.90;;;;;;5053525;28;20915;-74
2022/06/22 02:31:18;;;;;;;7.23;6.17;;;11.90;99.90;;;;;;5053994;28;20405;-75
2022/06/22 02:33:48;;;;;;;9.63;7.23;;;12.00;99.90;;;;;;5036525;28;20767;-72
2022/06/22 02:36:15;;;;;;;8.97;7.23;;;12.10;99.90;;;;;;5054257;28;20402;-72
2022/06/22 02:38:43;;;;;;;10.23;7.47;;;12.20;1.00;;;;;;5053458;28;20435;-68
2022/06/22 02:46:42;;;;;;;7.73;7.00;;;12.20;1.00;;;;;;5053459;28;20371;-69
2022/06/22 02:49:17;;;;;;;9.73;6.63;;;12.10;1.00;;;;;;5053096;28;20449;-72
2022/06/22 02:51:46;;;;;;;8.17;6.37;;;12.20;1.00;;;;;;5054003;28;20725;-68
2022/06/22 02:54:28;;;;;;;9.43;6.73;;;12.30;1.00;;;;;;5053896;28;20376;-68
2022/06/22 02:57:08;;;;;;;8.27;7.37;;;12.30;1.00;;;;;;5053340;28;20810;-72
2022/06/22 02:59:34;;;;;;;7.87;6.40;;;12.40;1.00;;;;;;5053664;28;20468;-71
2022/06/22 03:02:01;;;;;;;7.17;6.47;;;12.40;1.00;;;;;;5053729;28;20372;-71
2022/06/22 03:04:28;;;;;;;8.33;7.43;;;12.50;1.00;;;;;;5053741;28;20750;-68
2022/06/22 03:06:55;;;;;;;6.93;6.23;;;12.60;1.00;;;;;;5052376;28;20405;-75
2022/06/22 03:09:25;;;;;;;8.97;7.50;;;12.60;1.00;;;;;;5053665;28;20429;-71
2022/06/22 03:11:53;;;;;;;8.40;6.50;;;12.70;1.00;;;;;;5053641;28;20392;-75
2022/06/22 03:14:25;;;;;;;11.03;7.03;;;12.70;1.00;;;;;;5053499;28;20395;-69
2022/06/22 03:16:58;;;;;;;7.23;6.60;;;12.80;1.00;;;;;;5052872;28;20726;-68
2022/06/22 03:19:47;;;;;;;9.63;7.17;;;12.80;1.00;;;;;;5053463;28;20488;-68
2022/06/22 03:22:37;;;;;;;8.70;7.80;;;12.90;1.00;;;;;;5053792;28;20811;-72
2022/06/22 03:25:18;;;;;;;9.47;6.93;;;12.90;1.00;;;;;;5052039;28;20396;-73
2022/06/22 03:27:47;;;;;;;9.80;8.13;;;13.00;1.00;;;;;;5035202;28;20405;-69
2022/06/22 03:30:43;;;;;;;8.33;7.53;;;12.90;1.00;;;;;;5035402;28;20436;-69
2022/06/22 03:33:13;;;;;;;9.73;7.10;;;12.90;1.00;;;;;;5051310;28;20402;-73
2022/06/22 03:35:48;;;;;;;9.17;6.80;;;12.90;1.00;;;;;;5053472;28;20786;-68
2022/06/22 03:38:28;;;;;;;10.30;6.30;;;12.90;1.00;;;;;;5052516;28;20431;-69
2022/06/22 03:41:02;;;;;;;8.07;6.43;;;12.90;1.00;;;;;;5053427;28;20809;-73
2022/06/22 03:43:30;;;;;;;7.50;6.80;;;12.90;1.00;;;;;;5052641;28;20410;-73
2022/06/22 03:46:13;;;;;;;8.70;7.80;;;13.00;1.00;;;;;;5053334;28;20408;-73
2022/06/22 03:48:47;;;;;;;7.87;7.07;;;13.00;1.00;;;;;;5052358;28;21052;-69
2022/06/22 03:51:18;;;;;;;7.73;6.60;;;13.00;1.00;;;;;;5053187;28;20435;-69
2022/06/22 03:54:02;;;;;;;9.23;7.80;;;13.10;1.00;;;;;;5053108;28;20890;-69
2022/06/22 03:56:41;;;;;;;10.53;7.40;;;13.10;1.00;;;;;;5034447;28;20414;-73
2022/06/22 03:59:08;;;;;;;9.20;8.07;;;13.00;1.00;;;;;;5052890;28;20465;-70
2022/06/22 04:01:35;;;;;;;13.70;8.30;;;13.00;1.00;;;;;;5052314;28;20469;-72
2022/06/22 04:04:01;;;;;;;11.37;8.53;;;13.10;1.00;;;;;;5053091;28;20414;-74
2022/06/22 04:06:37;;;;;;;13.00;8.50;;;13.20;1.00;;;;;;5052353;28;20394;-70
2022/06/22 04:09:08;;;;;;;14.57;9.33;;;13.20;1.00;;;;;;5053070;28;20404;-74
2022/06/22 04:11:43;;;;;;;10.50;8.33;;;13.30;1.00;;;;;;5053061;28;20412;-68
2022/06/22 04:14:35;;;;;;;9.37;7.60;;;13.40;1.00;;;;;;5052936;28;20403;-68
2022/06/22 04:17:09;;;;;;;10.37;8.77;;;13.50;1.00;;;;;;5048252;28;20425;-72
2022/06/22 04:19:45;;;;;;;11.77;9.13;;;13.50;1.00;;;;;;5051980;28;20476;-68
2022/06/22 04:22:17;;;;;;;11.10;9.10;;;13.60;1.00;;;;;;5053021;28;20372;-73
2022/06/22 04:24:49;;;;;;;11.10;8.80;;;13.60;1.00;;;;;;5052860;28;20425;-73
2022/06/22 04:27:22;;;;;;;11.80;9.37;;;13.70;1.00;;;;;;5052475;28;20401;-68
2022/06/22 04:30:02;;;;;;;10.43;9.10;;;13.60;1.00;;;;;;5052811;28;20400;-73
2022/06/22 04:32:36;;;;;;;13.47;8.90;;;13.60;1.00;;;;;;5052962;28;20397;-75
2022/06/22 04:35:23;;;;;;;17.80;10.40;;;13.60;1.00;;;;;;5052778;28;20413;-73
2022/06/22 04:38:09;;;;;;;13.97;10.37;;;13.70;1.00;;;;;;5051636;28;20856;-75
2022/06/22 04:40:44;;;;;;;14.30;10.20;;;13.70;1.00;;;;;;5052817;28;20800;-70
2022/06/22 04:43:11;;;;;;;15.90;11.10;;;13.80;1.00;;;;;;5055345;28;20387;-67
2022/06/22 04:45:40;;;;;;;15.20;11.13;;;13.80;1.00;;;;;;5038518;28;20456;-67
2022/06/22 04:48:29;;;;;;;15.77;11.30;;;13.80;1.00;;;;;;5055481;28;20421;-67
2022/06/22 04:50:59;;;;;;;12.50;11.07;;;13.80;1.00;;;;;;5055565;28;20872;-69
2022/06/22 04:53:34;;;;;;;18.60;11.20;;;13.80;1.00;;;;;;5056329;28;20405;-71
2022/06/22 04:56:07;;;;;;;15.40;11.27;;;13.80;1.00;;;;;;5037511;28;20424;-69
2022/06/22 04:58:46;;;;;;;18.63;10.93;;;13.90;1.00;;;;;;5055233;28;20477;-72
2022/06/22 05:01:26;;;;;;;18.27;10.70;;;13.90;1.00;;;;;;5055946;28;20404;-68
2022/06/22 05:03:56;;;;;;;17.53;11.37;;;13.90;1.00;;;;;;5056104;28;20400;-68
2022/06/22 05:06:54;;;;;;;20.10;12.87;;;13.80;1.00;;;;;;5055788;28;20425;-72
2022/06/22 05:09:29;;;;;;;21.00;12.03;;;13.90;1.00;;;;;;5055736;28;20437;-72
2022/06/22 05:11:55;;;;;;;22.40;12.80;;;13.90;1.00;;;;;;5038104;28;20448;-72
2022/06/22 05:14:31;;;;;;;13.90;11.07;;;13.90;1.00;;;;;;5055647;28;20456;-71
2022/06/22 05:17:02;;;;;;;23.90;14.40;;;13.90;1.00;;;;;;5036624;28;20425;-68
2022/06/22 05:19:50;;;;;;;26.13;14.50;;;13.90;1.00;;;;;;5055430;28;20469;-68
2022/06/22 05:22:18;;;;;;;18.43;12.67;;;13.90;1.00;;;;;;5055862;28;20402;-69
2022/06/22 05:24:48;;;;;;;20.83;12.07;;;13.90;1.00;;;;;;5037716;28;20418;-67
2022/06/22 05:27:20;;;;;;;19.53;11.50;;;13.90;1.00;;;;;;5054883;28;20406;-74
2022/06/22 05:29:56;;;;;;;20.13;11.67;;;14.00;1.00;;;;;;5055504;28;20889;-74
2022/06/22 05:32:30;;;;;;;17.97;13.03;;;14.00;1.00;;;;;;5054849;28;20424;-74
2022/06/22 05:34:57;;;;;;;15.97;12.30;;;14.00;1.00;;;;;;5055557;28;20900;-73
2022/06/22 05:37:31;;;;;;;15.83;11.40;;;14.10;1.00;;;;;;5054708;28;20402;-73
2022/06/22 05:39:57;;;;;;;16.50;12.00;;;14.10;1.00;;;;;;5055139;28;20489;-69
2022/06/22 05:42:24;;;;;;;15.47;10.23;;;14.10;1.00;;;;;;5055469;28;20408;-74
2022/06/22 05:44:52;;;;;;;18.87;11.47;;;14.10;1.00;;;;;;5055311;28;20417;-72
2022/06/22 05:47:27;;;;;;;17.80;11.73;;;14.20;1.00;;;;;;5054016;28;20410;-67
2022/06/22 05:50:21;;;;;;;21.17;11.33;;;14.20;1.00;;;;;;5054843;28;20441;-71
2022/06/22 05:52:53;;;;;;;22.73;10.63;;;14.10;1.00;;;;;;5054843;28;20380;-67
2022/06/22 05:55:54;;;;;;;18.00;11.07;;;14.30;1.00;;;;;;5036436;28;20420;-69
2022/06/22 05:58:36;;;;;;;17.10;11.97;;;14.30;1.00;;;;;;4998184;28;20488;-70
2022/06/22 06:01:04;;;;;;;16.30;9.97;;;14.30;1.00;;;;;;5055028;28;20417;-69
2022/06/22 06:03:45;;;;;;;16.07;11.60;;;14.30;1.00;;;;;;5054481;28;20406;-70
2022/06/22 06:06:19;;;;;;;16.10;10.03;;;14.50;1.00;;;;;;5054508;28;20435;-74
2022/06/22 06:09:07;;;;;;;18.00;11.43;;;14.50;1.00;;;;;;5054296;28;20439;-69
2022/06/22 06:12:01;;;;;;;15.20;11.80;;;14.50;1.00;;;;;;5036826;28;21083;-69
2022/06/22 06:14:31;;;;;;;16.27;10.83;;;14.60;1.00;;;;;;5054842;28;20564;-69
2022/06/22 06:17:04;;;;;;;11.37;9.60;;;14.50;1.00;;;;;;5036261;28;20801;-73
2022/06/22 06:19:36;;;;;;;19.30;9.80;;;14.60;1.00;;;;;;5054330;28;20457;-70
2022/06/22 06:22:04;;;;;;;13.50;9.97;;;14.70;99.90;;;;;;5036218;28;20802;-73
2022/06/22 06:27:38;;;;;;;11.67;9.93;;;14.60;99.90;;;;;;5053772;28;20421;-73
2022/06/22 06:30:03;;;;;;;16.60;9.93;;;14.60;99.90;;;;;;5054235;28;20513;-69
2022/06/22 06:32:39;;;;;;;18.27;10.90;;;14.70;99.90;;;;;;5036516;28;20548;-73
2022/06/22 06:35:26;;;;;;;12.00;9.27;;;14.60;99.90;;;;;;5054385;28;20192;-70
2022/06/22 06:38:07;;;;;;;13.47;10.10;;;14.60;99.90;;;;;;5053448;28;20417;-67
2022/06/22 06:41:07;;;;;;;9.87;8.87;;;14.70;99.90;;;;;;5053435;28;20406;-68
2022/06/22 06:43:33;;;;;;;13.87;9.87;;;14.80;99.90;;;;;;5054268;28;20444;-71
2022/06/22 06:46:00;;;;;;;15.20;8.97;;;15.00;99.90;;;;;;5036245;28;20410;-71
2022/06/22 06:48:28;;;;;;;18.20;8.90;;;15.20;99.90;;;;;;5053392;28;20678;-67
2022/06/22 06:50:59;;;;;;;10.60;8.63;;;15.30;99.90;;;;;;5053870;28;20401;-71
2022/06/22 06:53:45;;;;;;;10.33;9.17;;;15.40;99.90;;;;;;5054085;28;20397;-73
2022/06/22 06:56:34;;;;;;;10.93;8.87;;;15.30;99.90;;;;;;5053155;28;20412;-71
2022/06/22 06:59:04;;;;;;;12.27;7.30;;;15.30;99.90;;;;;;5053811;28;20818;-71
2022/06/22 07:01:33;;;;;;;10.93;7.70;;;15.40;99.90;;;;;;5053867;28;20794;-67
2022/06/22 07:04:05;;;;;;;13.33;8.63;;;15.60;99.90;;;;;;5053724;28;20475;-68
2022/06/22 07:06:31;;;;;;;14.03;8.67;;;15.70;99.90;;;;;;5053034;28;20800;-67
2022/06/22 07:09:17;;;;;;;14.80;8.07;;;15.90;99.90;;;;;;5035754;28;20433;-72
2022/06/22 07:11:46;;;;;;;9.83;8.37;;;16.00;99.90;;;;;;5053611;28;20936;-72
2022/06/22 07:14:18;;;;;;;13.83;7.97;;;16.20;99.90;;;;;;5052798;28;20842;-72
2022/06/22 07:16:43;;;;;;;12.20;8.40;;;16.40;99.90;;;;;;5052928;28;20425;-66
2022/06/22 07:19:19;;;;;;;11.20;8.03;;;16.50;99.90;;;;;;5053620;28;20445;-72
2022/06/22 07:21:50;;;;;;;15.00;7.90;;;16.50;99.90;;;;;;5053541;28;20201;-67
2022/06/22 07:24:37;;;;;;;13.60;7.40;;;16.50;99.90;;;;;;5053349;28;20447;-68
2022/06/22 07:27:16;;;;;;;9.97;8.27;;;16.50;99.90;;;;;;5052907;28;20405;-68
2022/06/22 07:30:09;;;;;;;13.80;7.37;;;16.50;99.90;;;;;;5053555;28;20827;-72
2022/06/22 07:32:43;;;;;;;10.20;6.83;;;16.50;99.90;;;;;;5053505;28;20413;-72
2022/06/22 07:35:34;;;;;;;9.43;6.87;;;16.50;99.90;;;;;;5035271;28;20416;-67
2022/06/22 07:38:21;;;;;;;8.70;6.60;;;16.70;99.90;;;;;;5052629;28;20413;-71
2022/06/22 07:43:33;;;;;;;10.83;6.30;;;16.90;99.90;;;;;;5053661;28;20416;-72
2022/06/22 07:45:59;;;;;;;8.97;6.80;;;17.00;99.90;;;;;;5053384;28;20397;-67
2022/06/22 07:48:27;;;;;;;13.13;7.03;;;17.20;99.90;;;;;;5052315;28;20571;-67
2022/06/22 07:51:00;;;;;;;11.23;6.47;;;17.30;99.90;;;;;;5053241;28;20218;-71
2022/06/22 07:53:48;;;;;;;10.10;6.57;;;17.20;99.90;;;;;;5034921;28;20824;-67
2022/06/22 07:56:46;;;;;;;9.20;6.10;;;17.20;99.90;;;;;;5053031;28;20416;-68
2022/06/22 07:59:18;;;;;;;12.70;9.40;;;17.40;99.90;;;;;;5053146;28;20480;-68
2022/06/22 08:01:46;;;;;;;9.10;6.63;;;17.60;99.90;;;;;;5052528;28;20451;-67
2022/06/22 08:04:20;;;;;;;9.20;5.57;;;17.70;99.90;;;;;;5052676;28;20408;-68
2022/06/22 08:06:59;;;;;;;8.10;6.47;;;17.70;99.90;;;;;;5052051;28;21047;-72
2022/06/22 08:09:51;;;;;;;6.53;5.80;;;17.70;99.90;;;;;;5052613;28;20421;-68
2022/06/22 08:12:24;;;;;;;6.97;5.93;;;17.70;99.90;;;;;;5052211;28;20496;-68
2022/06/22 08:14:53;;;;;;;10.70;6.50;;;17.60;99.90;;;;;;5052415;28;20809;-68
2022/06/22 08:17:44;;;;;;;8.57;6.27;;;17.70;99.90;;;;;;5053527;28;20401;-68
2022/06/22 08:20:16;;;;;;;10.10;6.60;;;17.80;99.90;;;;;;5056379;28;20461;-67
2022/06/22 08:22:44;;;;;;;12.50;6.50;;;17.90;99.90;;;;;;5056395;28;20463;-71
2022/06/22 08:25:12;;;;;;;8.83;6.67;;;17.70;99.90;;;;;;5056519;28;20405;-72
2022/06/22 08:27:38;;;;;;;12.63;6.83;;;17.80;99.90;;;;;;5055436;28;20405;-68
2022/06/22 08:30:05;;;;;;;10.90;5.83;;;17.80;99.90;;;;;;5055923;28;20433;-67
2022/06/22 08:32:33;;;;;;;10.50;6.00;;;17.70;99.90;;;;;;5056299;28;20439;-71
2022/06/22 08:35:09;;;;;;;9.13;5.97;;;17.70;99.90;;;;;;5056223;28;20419;-67
2022/06/22 08:38:04;;;;;;;8.13;7.20;;;17.70;99.90;;;;;;5055593;28;20420;-72
2022/06/22 08:40:41;;;;;;;6.67;5.77;;;17.70;99.90;;;;;;5054249;28;20782;-69
2022/06/22 08:43:35;;;;;;;7.07;5.40;;;17.60;99.90;;;;;;5056155;28;20798;-72
2022/06/22 08:46:16;;;;;;;6.87;5.13;;;17.70;99.90;;;;;;5055624;28;20405;-70
2022/06/22 08:48:48;;;;;;;9.00;6.00;;;17.90;99.90;;;;;;5055364;28;20955;-69
2022/06/22 09:19:51;;;;;;;13.27;5.07;;;19.50;99.90;;;;;;5070237;28;20972;-71
2022/06/22 09:22:19;;;;;;;6.13;4.70;;;19.30;99.90;;;;;;5069978;28;20491;-71
2022/06/22 09:25:22;;;;;;;5.50;4.37;;;19.30;99.90;;;;;;5070375;28;20458;-69
2022/06/22 09:28:03;;;;;;;5.47;4.20;;;19.30;99.90;;;;;;5069623;28;20400;-67
2022/06/22 09:31:04;;;;;;;6.83;4.43;;;19.20;99.90;;;;;;5068964;28;20920;-73
2022/06/22 09:33:54;;;;;;;8.67;5.10;;;19.50;99.90;;;;;;5069985;28;20423;-71
2022/06/22 09:36:41;;;;;;;6.97;4.30;;;19.70;99.90;;;;;;5069799;28;20599;-69
2022/06/22 09:39:34;;;;;;;5.67;5.00;;;19.70;99.90;;;;;;5069123;28;20484;-72
2022/06/22 09:42:08;;;;;;;6.60;3.80;;;19.60;99.90;;;;;;5070151;28;20474;-73
2022/06/22 09:44:40;;;;;;;5.63;3.67;;;19.50;99.90;;;;;;5070166;28;20391;-72
2022/06/22 09:47:17;;;;;;;9.07;4.93;;;19.40;99.90;;;;;;5069258;28;20510;-71
2022/06/22 09:50:07;;;;;;;4.93;4.50;;;19.60;99.90;;;;;;5069733;28;20943;-73
2022/06/22 09:52:33;;;;;;;4.73;4.17;;;19.80;99.90;;;;;;5069834;28;20404;-73
2022/06/22 09:58:38;;;;;;;6.40;2.97;;;20.00;99.90;;;;;;5068551;28;20201;-72
2022/06/22 10:01:20;;;;;;;4.37;3.67;;;20.20;99.90;;;;;;5069594;28;20453;-67
2022/06/22 10:04:22;;;;;;;4.77;3.53;;;20.40;99.90;;;;;;5069594;28;20462;-68
2022/06/22 10:07:00;;;;;;;3.30;2.90;;;20.30;99.90;;;;;;5068855;28;20400;-71
2022/06/22 10:09:53;;;;;;;5.50;3.90;;;20.30;99.90;;;;;;5069223;28;21009;-68
2022/06/22 10:12:57;;;;;;;4.37;2.87;;;20.20;99.90;;;;;;5069308;28;20401;-67
2022/06/22 10:15:42;;;;;;;4.77;3.60;;;20.10;99.90;;;;;;5069278;28;20392;-68
2022/06/22 10:18:09;;;;;;;4.77;3.70;;;19.80;99.90;;;;;;5067718;28;20486;-67
2022/06/22 10:20:55;;;;;;;3.73;3.27;;;19.70;99.90;;;;;;5069210;28;20480;-70
2022/06/22 10:23:35;;;;;;;5.53;3.17;;;19.80;99.90;;;;;;5067870;28;20405;-71
2022/06/22 10:26:33;;;;;;;4.57;3.77;;;19.80;99.90;;;;;;5069131;28;20405;-73
2022/06/22 10:29:04;;;;;;;5.87;3.93;;;19.80;99.90;;;;;;5063828;28;20425;-71
2022/06/22 10:32:22;;;;;;;3.70;3.40;;;19.70;99.90;;;;;;5055642;28;20799;-70
2022/06/22 10:35:26;;;;;;;4.83;3.90;;;19.70;99.90;;;;;;5026561;28;20410;-72
2022/06/22 10:38:17;;;;;;;5.37;3.90;;;19.80;99.90;;;;;;5054505;28;21094;-72
2022/06/22 10:46:34;;;;;;;4.93;3.40;;;19.70;99.90;;;;;;5054786;28;20393;-71
2022/06/22 10:49:47;;;;;;;7.10;3.30;;;19.50;99.90;;;;;;5055374;28;20528;-72
2022/06/22 10:52:18;;;;;;;6.90;3.63;;;19.40;99.90;;;;;;5053302;28;20419;-68
2022/06/22 10:55:11;;;;;;;3.03;2.83;;;19.50;99.90;;;;;;5054813;28;21012;-72
2022/06/22 10:57:37;;;;;;;4.00;3.30;;;19.60;99.90;;;;;;5054557;28;20507;-71
2022/06/22 11:00:20;;;;;;;4.37;3.30;;;19.60;99.90;;;;;;5055223;28;20409;-72
2022/06/22 11:03:09;;;;;;;4.67;3.70;;;19.70;99.90;;;;;;5055241;28;20209;-68
2022/06/22 11:06:08;;;;;;;4.50;3.53;;;19.70;99.90;;;;;;5055050;28;20401;-71
2022/06/22 11:08:59;;;;;;;3.80;3.37;;;19.70;99.90;;;;;;5054376;28;20778;-68
2022/06/22 11:11:36;;;;;;;8.67;3.90;;;19.70;99.90;;;;;;5054042;28;20393;-68
2022/06/22 11:14:21;;;;;;;8.77;3.87;;;19.60;99.90;;;;;;5054984;28;20400;-68
2022/06/22 11:17:01;;;;;;;3.87;3.43;;;19.60;99.90;;;;;;5054423;28;20427;-72
2022/06/22 11:19:53;;;;;;;4.07;3.67;;;19.50;99.90;;;;;;5053862;28;20433;-68
2022/06/22 11:22:32;;;;;;;3.27;2.97;;;19.40;99.90;;;;;;5054676;28;20424;-71
2022/06/22 11:31:35;;;;;;;3.97;3.67;;;18.90;99.90;;;;;;5054766;28;20447;-67
2022/06/22 11:34:21;;;;;;;9.30;5.20;;;19.10;99.90;;;;;;5054542;28;20397;-68
2022/06/22 11:37:13;;;;;;;6.27;3.90;;;19.20;99.90;;;;;;5054081;28;20847;-71
2022/06/22 11:39:48;;;;;;;4.83;3.80;;;19.50;99.90;;;;;;5054032;28;20798;-71
2022/06/22 11:42:23;;;;;;;3.40;2.80;;;19.50;99.90;;;;;;5051818;28;20759;-70
2022/06/22 11:48:22;;;;;;;4.50;3.40;;;19.80;99.90;;;;;;5053089;28;20432;-71
2022/06/22 11:51:32;;;;;;;3.50;3.20;;;20.00;99.90;;;;;;5054356;28;20393;-68
2022/06/22 11:54:19;;;;;;;7.40;3.17;;;20.10;99.90;;;;;;5052054;28;20417;-68
2022/06/22 11:56:56;;;;;;;3.60;3.10;;;20.30;99.90;;;;;;5051453;28;20397;-72
2022/06/22 11:59:55;;;;;;;9.70;3.77;;;20.20;99.90;;;;;;5053524;28;20444;-72
2022/06/22 12:02:51;;;;;;;7.50;3.23;;;20.10;99.90;;;;;;5053945;28;20413;-68
2022/06/22 12:05:26;;;;;;;4.23;3.27;;;20.00;99.90;;;;;;5053434;28;20405;-68
2022/06/22 12:08:03;;;;;;;3.93;3.53;;;20.10;99.90;;;;;;5053283;28;20423;-67
2022/06/22 12:10:43;;;;;;;4.10;3.03;;;20.30;99.90;;;;;;5053978;28;20443;-68
2022/06/22 12:13:12;;;;;;;4.23;2.63;;;20.50;99.90;;;;;;5053784;28;20906;-71
2022/06/22 12:15:59;;;;;;;6.70;3.17;;;20.60;99.90;;;;;;5053820;28;20736;-68
2022/06/22 12:18:50;;;;;;;6.83;3.67;;;20.70;99.90;;;;;;5052783;28;20473;-71
2022/06/22 12:21:25;;;;;;;5.23;3.63;;;21.00;99.90;;;;;;5053709;28;20405;-71
2022/06/22 12:24:09;;;;;;;3.23;2.93;;;21.20;99.90;;;;;;5053086;28;20951;-67
2022/06/22 12:26:57;;;;;;;4.30;2.60;;;21.30;99.90;;;;;;5052859;28;20882;-67
2022/06/22 12:30:07;;;;;;;3.60;2.80;;;21.50;99.90;;;;;;5053517;28;20425;-71
2022/06/22 12:32:35;;;;;;;9.20;2.77;;;21.90;99.90;;;;;;5051593;28;20497;-68
2022/06/22 12:35:17;;;;;;;7.57;3.70;;;22.30;99.90;;;;;;5053428;28;20480;-70
2022/06/22 12:38:06;;;;;;;5.60;3.47;;;22.60;99.90;;;;;;5052767;28;20802;-68
2022/06/22 12:40:49;;;;;;;4.27;2.80;;;22.70;99.90;;;;;;5052541;28;20420;-69
2022/06/22 12:43:21;;;;;;;4.50;4.00;;;22.40;99.90;;;;;;5052752;28;20393;-72
2022/06/22 12:46:00;;;;;;;3.17;2.50;;;22.40;99.90;;;;;;5053286;28;20414;-72
2022/06/22 12:48:42;;;;;;;6.23;2.73;;;22.40;99.90;;;;;;5052484;28;20424;-72
2022/06/22 12:51:31;;;;;;;4.57;2.53;;;22.20;99.90;;;;;;5053171;28;20409;-72
2022/06/22 12:54:15;;;;;;;3.17;2.70;;;21.90;99.90;;;;;;5053031;28;20425;-69
2022/06/22 12:57:02;;;;;;;4.00;2.97;;;21.80;99.90;;;;;;5052494;28;20417;-68
2022/06/22 12:59:37;;;;;;;6.07;2.73;;;21.80;99.90;;;;;;5053109;28;20508;-73
2022/06/22 13:02:12;;;;;;;4.50;2.50;;;21.50;99.90;;;;;;5052692;28;20399;-72
2022/06/22 13:04:38;;;;;;;2.87;2.67;;;21.40;99.90;;;;;;5053048;28;20390;-72
2022/06/22 13:07:09;;;;;;;4.50;2.33;;;21.20;99.90;;;;;;5052302;28;20443;-72
2022/06/22 13:09:35;;;;;;;2.70;2.50;;;21.30;99.90;;;;;;5052950;28;20202;-70
2022/06/22 13:12:09;;;;;;;3.33;2.20;;;21.60;99.90;;;;;;5051988;28;20408;-72
2022/06/22 13:14:49;;;;;;;3.07;2.30;;;21.60;99.90;;;;;;5052924;28;20412;-68
2022/06/22 13:18:01;;;;;;;1.60;1.50;;;21.50;99.90;;;;;;5052071;28;20393;-69
2022/06/22 13:20:36;;;;;;;4.17;2.23;;;21.70;99.90;;;;;;5041721;28;20421;-71
2022/06/22 13:23:13;;;;;;;2.20;2.00;;;21.70;99.90;;;;;;5051245;28;20431;-69
2022/06/22 13:25:47;;;;;;;4.07;2.03;;;21.70;99.90;;;;;;5051507;28;20413;-69
2022/06/22 13:28:22;;;;;;;1.87;1.70;;;21.60;99.90;;;;;;5052200;28;20425;-70
2022/06/22 13:30:56;;;;;;;2.50;2.23;;;21.70;99.90;;;;;;5052775;28;20408;-72
2022/06/22 13:33:46;;;;;;;3.27;2.53;;;21.90;99.90;;;;;;5051522;28;20413;-69
2022/06/22 13:36:23;;;;;;;3.13;1.57;;;22.30;99.90;;;;;;5052686;28;20402;-71
2022/06/22 13:39:12;;;;;;;4.80;2.20;;;22.80;99.90;;;;;;5051582;28;20476;-68
2022/06/22 13:42:01;;;;;;;2.23;1.53;;;23.00;99.90;;;;;;5052625;28;20504;-71
2022/06/22 13:44:50;;;;;;;3.00;1.33;;;22.90;99.90;;;;;;5052682;28;20409;-69
2022/06/22 13:47:47;;;;;;;1.73;1.63;;;22.40;97.30;;;;;;5051989;28;20405;-70
2022/06/22 13:53:54;;;;;;;2.20;1.53;;;22.50;99.90;;;;;;5052621;28;20385;-73
2022/06/22 13:56:40;;;;;;;3.20;1.10;;;22.60;96.70;;;;;;5051969;28;20960;-69
2022/06/22 13:59:32;;;;;;;3.80;2.03;;;22.60;96.70;;;;;;5052020;28;20479;-69
2022/06/22 14:02:14;;;;;;;4.17;1.60;;;22.50;96.70;;;;;;5052534;28;20460;-69
2022/06/22 14:04:54;;;;;;;2.03;1.57;;;22.20;97.70;;;;;;5053834;28;20488;-69
2022/06/22 14:07:29;;;;;;;2.63;1.50;;;22.00;96.40;;;;;;5037615;28;20443;-67
2022/06/22 14:10:36;;;;;;;1.83;1.70;;;21.90;96.40;;;;;;5054778;28;20908;-72
2022/06/22 14:13:13;;;;;;;2.00;1.80;;;21.90;99.90;;;;;;5056096;28;20408;-71
2022/06/22 14:15:51;;;;;;;2.33;1.70;;;21.90;99.90;;;;;;5055614;28;20400;-70
2022/06/22 14:18:26;;;;;;;1.60;1.37;;;21.80;96.40;;;;;;5055196;28;20488;-71
2022/06/22 14:21:07;;;;;;;2.37;1.93;;;21.70;97.80;;;;;;5056000;28;20393;-67
2022/06/22 14:23:36;;;;;;;4.03;1.67;;;21.80;99.90;;;;;;5055865;28;20432;-71
2022/06/22 14:26:45;;;;;;;3.20;1.80;;;22.00;99.90;;;;;;5055994;28;20389;-72
2022/06/22 14:29:36;;;;;;;3.23;1.40;;;22.10;99.90;;;;;;5055791;28;20441;-67
2022/06/22 14:32:26;;;;;;;1.70;1.60;;;22.20;99.90;;;;;;5055892;28;20390;-67
2022/06/22 14:35:04;;;;;;;1.97;1.43;;;22.20;98.20;;;;;;5055179;28;20413;-71
2022/06/22 14:37:38;;;;;;;1.70;1.30;;;22.20;96.80;;;;;;5054922;28;20449;-70
2022/06/22 14:40:15;;;;;;;1.73;1.30;;;22.30;97.60;;;;;;5054353;28;20425;-71
2022/06/22 14:42:53;;;;;;;2.03;1.20;;;22.20;96.50;;;;;;5055722;28;20390;-72
2022/06/22 14:46:17;;;;;;;1.20;1.03;;;22.10;96.50;;;;;;5055616;28;20739;-72
2022/06/22 14:49:03;;;;;;;1.50;1.00;;;22.30;99.90;;;;;;5025213;28;20429;-74
2022/06/22 14:51:55;;;;;;;2.27;0.90;;;22.60;97.30;;;;;;5054848;28;20409;-70
2022/06/22 14:54:38;;;;;;;1.10;0.90;;;22.60;99.90;;;;;;5054080;28;20406;-68